Terminal Aerodrome Forecast
Issued by NWS

Home | Current Version | Previous Version | Text Only | Print | Product List | Glossary On
Versions: 1 2 3 4 5 6 7 8 9 10 11 12 13 14 15 16 17 18 19 20 21 22 23 24 25 26 27 28 29 30 31 32
000
FTUS45 KBOU 221733
TAFAPA
TAF
KAPA 221733Z 2218/2318 33010KT P6SM FEW200
     FM221830 26015G23KT P6SM FEW120
     FM230200 18013KT P6SM SCT100 BKN150
     FM231000 30010KT P6SM SCT070 BKN100
     FM231700 26014G21KT P6SM VCSH SCT050 BKN090=

USA.gov is the U.S. government's official web portal to all federal, state and local government web resources and services.